createdAt,value
2017-01-25T00:00:57.794Z,0
2017-01-25T00:01:57.769Z,0
2017-01-25T00:02:57.751Z,0
2017-01-25T00:03:57.720Z,0
2017-01-25T00:04:57.708Z,0
2017-01-25T00:05:57.683Z,0
2017-01-25T00:06:57.641Z,0
2017-01-25T00:07:57.624Z,0
2017-01-25T00:08:57.614Z,0
2017-01-25T00:09:57.581Z,0
2017-01-25T00:10:57.560Z,0
2017-01-25T00:11:57.547Z,0
2017-01-25T00:12:57.514Z,0
2017-01-25T00:13:57.500Z,0
2017-01-25T00:14:57.466Z,0
2017-01-25T00:15:57.469Z,0
2017-01-25T00:16:57.438Z,0
2017-01-25T00:17:57.417Z,0
2017-01-25T00:18:57.396Z,0
2017-01-25T00:19:57.371Z,0
2017-01-25T00:20:57.346Z,0
2017-01-25T00:21:57.345Z,0
2017-01-25T00:22:57.304Z,0
2017-01-25T00:23:57.280Z,0
2017-01-25T00:24:57.257Z,0
2017-01-25T00:25:57.246Z,0
2017-01-25T00:26:57.216Z,0
2017-01-25T00:27:57.200Z,0
2017-01-25T00:28:57.181Z,0
2017-01-25T00:29:57.162Z,0
2017-01-25T00:30:57.128Z,0
2017-01-25T00:31:57.110Z,0
2017-01-25T00:32:57.093Z,0
2017-01-25T00:33:57.061Z,0
2017-01-25T00:34:57.047Z,0
2017-01-25T00:35:57.039Z,0
2017-01-25T00:36:56.992Z,0
2017-01-25T00:37:56.977Z,0
2017-01-25T00:38:56.949Z,0
2017-01-25T00:39:56.968Z,0
2017-01-25T00:40:56.907Z,0
2017-01-25T00:41:56.889Z,0
2017-01-25T00:42:56.886Z,0
2017-01-25T00:43:56.855Z,0
2017-01-25T00:44:56.825Z,0
2017-01-25T00:45:56.816Z,0
2017-01-25T00:46:56.791Z,0
2017-01-25T00:47:56.762Z,0
2017-01-25T00:48:56.732Z,0
2017-01-25T00:49:56.714Z,0
2017-01-25T00:50:56.710Z,0
2017-01-25T00:51:56.695Z,0
2017-01-25T00:52:56.661Z,0
2017-01-25T00:53:56.624Z,0
2017-01-25T00:54:56.615Z,0
2017-01-25T00:55:56.616Z,0
2017-01-25T00:56:56.568Z,0
2017-01-25T00:57:56.550Z,0
2017-01-25T00:58:56.529Z,0
2017-01-25T00:59:56.487Z,0
2017-01-25T01:00:56.472Z,0
2017-01-25T01:01:56.489Z,0
2017-01-25T01:02:56.468Z,0
2017-01-25T01:03:56.420Z,0
2017-01-25T01:04:56.400Z,0
2017-01-25T01:05:56.372Z,0
2017-01-25T01:06:56.359Z,0
2017-01-25T01:07:56.338Z,0
2017-01-25T01:08:56.340Z,0
2017-01-25T01:09:56.295Z,0
2017-01-25T01:10:56.254Z,0
2017-01-25T01:11:56.242Z,0
2017-01-25T01:12:56.233Z,0
2017-01-25T01:13:56.214Z,0
2017-01-25T01:14:56.183Z,0
2017-01-25T01:15:56.172Z,0
2017-01-25T01:16:56.161Z,0
2017-01-25T01:17:56.117Z,0
2017-01-25T01:18:56.096Z,0
2017-01-25T01:19:56.067Z,0
2017-01-25T01:20:56.064Z,0
2017-01-25T01:21:56.039Z,0
2017-01-25T01:22:56.012Z,0
2017-01-25T01:23:56.012Z,0
2017-01-25T01:24:56.000Z,0
2017-01-25T01:25:55.954Z,0
2017-01-25T01:26:55.936Z,0
2017-01-25T01:27:55.899Z,0
2017-01-25T01:28:55.905Z,0
2017-01-25T01:29:55.877Z,0
2017-01-25T01:30:55.858Z,0
2017-01-25T01:31:55.821Z,0
2017-01-25T01:32:55.826Z,0
2017-01-25T01:33:55.779Z,0
2017-01-25T01:34:55.751Z,0
2017-01-25T01:35:55.728Z,0
2017-01-25T01:36:55.717Z,0
2017-01-25T01:37:55.697Z,0
2017-01-25T01:38:55.666Z,0
2017-01-25T01:39:55.667Z,0
2017-01-25T01:40:55.632Z,0
2017-01-25T01:41:55.623Z,0
2017-01-25T01:42:55.587Z,0
2017-01-25T01:43:55.577Z,0
2017-01-25T01:44:55.535Z,0
2017-01-25T01:45:55.570Z,0
2017-01-25T01:46:55.493Z,0
2017-01-25T01:47:55.485Z,0
2017-01-25T01:48:55.470Z,0
2017-01-25T01:49:55.427Z,0
2017-01-25T01:50:55.435Z,0
2017-01-25T01:51:55.411Z,0
2017-01-25T01:52:55.376Z,0
2017-01-25T01:53:55.366Z,0
2017-01-25T01:54:55.348Z,0
2017-01-25T01:55:55.317Z,0
2017-01-25T01:56:55.282Z,0
2017-01-25T01:57:55.279Z,0
2017-01-25T01:58:55.286Z,0
2017-01-25T01:59:55.215Z,0
2017-01-25T02:00:55.214Z,0
2017-01-25T02:01:55.198Z,0
2017-01-25T02:02:55.171Z,0
2017-01-25T02:03:55.156Z,0
2017-01-25T02:04:55.123Z,0
2017-01-25T02:05:55.100Z,0
2017-01-25T02:06:55.077Z,0
2017-01-25T02:07:55.053Z,0
2017-01-25T02:08:55.047Z,0
2017-01-25T02:09:55.017Z,0
2017-01-25T02:10:55.000Z,0
2017-01-25T02:11:54.971Z,0
2017-01-25T02:12:54.935Z,0
2017-01-25T02:13:54.928Z,0
2017-01-25T02:14:54.901Z,0
2017-01-25T02:15:54.879Z,0
2017-01-25T02:16:54.859Z,0
2017-01-25T02:17:54.841Z,0
2017-01-25T02:18:54.831Z,0
2017-01-25T02:19:54.797Z,0
2017-01-25T02:20:54.788Z,0
2017-01-25T02:21:54.754Z,0
2017-01-25T02:22:54.738Z,0
2017-01-25T02:23:54.728Z,0
2017-01-25T02:24:54.714Z,0
2017-01-25T02:25:54.666Z,0
2017-01-25T02:26:54.662Z,0
2017-01-25T02:27:54.647Z,0
2017-01-25T02:28:54.603Z,0
2017-01-25T02:29:54.593Z,0
2017-01-25T02:30:54.563Z,0
2017-01-25T02:31:54.940Z,0
2017-01-25T02:32:54.516Z,0
2017-01-25T02:33:54.508Z,0
2017-01-25T02:34:54.486Z,0
2017-01-25T02:35:54.465Z,0
2017-01-25T02:36:54.438Z,0
2017-01-25T02:37:54.420Z,0
2017-01-25T02:38:54.426Z,0
2017-01-25T02:39:54.381Z,0
2017-01-25T02:40:54.358Z,0
2017-01-25T02:41:54.340Z,0
2017-01-25T02:42:54.340Z,0
2017-01-25T02:43:54.298Z,0
2017-01-25T02:44:54.275Z,0
2017-01-25T02:45:54.263Z,0
2017-01-25T02:46:54.232Z,0
2017-01-25T02:47:54.220Z,0
2017-01-25T02:48:54.197Z,0
2017-01-25T02:49:54.187Z,0
2017-01-25T02:50:54.148Z,0
2017-01-25T02:51:54.117Z,0
2017-01-25T02:52:54.109Z,0
2017-01-25T02:53:54.080Z,0
2017-01-25T02:54:54.055Z,0
2017-01-25T02:55:54.041Z,0
2017-01-25T02:56:54.017Z,0
2017-01-25T02:57:54.001Z,0
2017-01-25T02:58:53.971Z,0
2017-01-25T02:59:53.977Z,0
2017-01-25T03:00:53.938Z,0
2017-01-25T03:01:53.915Z,0
2017-01-25T03:02:53.901Z,0
2017-01-25T03:03:53.888Z,0
2017-01-25T03:04:53.888Z,0
2017-01-25T03:05:53.835Z,0
2017-01-25T03:06:53.827Z,0
2017-01-25T03:07:53.797Z,0
2017-01-25T03:08:53.764Z,0
2017-01-25T03:09:53.745Z,0
2017-01-25T03:10:53.735Z,0
2017-01-25T03:11:53.714Z,0
2017-01-25T03:12:53.691Z,0
2017-01-25T03:13:53.677Z,0
2017-01-25T03:14:53.651Z,0
2017-01-25T03:15:53.632Z,0
2017-01-25T03:16:53.608Z,0
2017-01-25T03:17:53.586Z,0
2017-01-25T03:18:53.556Z,0
2017-01-25T03:19:53.559Z,0
2017-01-25T03:20:53.518Z,0
2017-01-25T03:21:53.485Z,0
2017-01-25T03:22:53.474Z,0
2017-01-25T03:23:53.451Z,0
2017-01-25T03:24:53.436Z,0
2017-01-25T03:25:53.424Z,0
2017-01-25T03:26:53.390Z,0
2017-01-25T03:27:53.367Z,0
2017-01-25T03:28:53.357Z,0
2017-01-25T03:29:53.322Z,0
2017-01-25T03:30:53.308Z,0
2017-01-25T03:31:53.282Z,0
2017-01-25T03:32:53.273Z,0
2017-01-25T03:33:53.257Z,0
2017-01-25T03:34:53.230Z,0
2017-01-25T03:35:53.243Z,0
2017-01-25T03:36:53.191Z,0
2017-01-25T03:37:53.165Z,0
2017-01-25T03:38:53.165Z,0
2017-01-25T03:39:53.124Z,0
2017-01-25T03:40:53.094Z,0
2017-01-25T03:41:53.087Z,0
2017-01-25T03:42:53.064Z,0
2017-01-25T03:43:53.050Z,0
2017-01-25T03:44:53.023Z,0
2017-01-25T03:45:52.995Z,0
2017-01-25T03:46:52.980Z,0
2017-01-25T03:47:52.964Z,0
2017-01-25T03:48:52.928Z,0
2017-01-25T03:49:52.924Z,0
2017-01-25T03:50:52.932Z,0
2017-01-25T03:51:52.877Z,0
2017-01-25T03:52:52.858Z,0
2017-01-25T03:53:52.835Z,0
2017-01-25T03:54:52.818Z,0
2017-01-25T03:55:52.801Z,0
2017-01-25T03:56:52.777Z,0
2017-01-25T03:57:52.762Z,0
2017-01-25T03:58:52.734Z,0
2017-01-25T03:59:52.703Z,0
2017-01-25T04:00:52.694Z,0
2017-01-25T04:01:52.678Z,0
2017-01-25T04:02:52.646Z,0
2017-01-25T04:03:52.649Z,0
2017-01-25T04:04:52.625Z,0
2017-01-25T04:05:52.597Z,0
2017-01-25T04:06:52.571Z,0
2017-01-25T04:07:52.576Z,0
2017-01-25T04:08:52.534Z,0
2017-01-25T04:09:52.508Z,0
2017-01-25T04:10:52.493Z,0
2017-01-25T04:11:52.459Z,0
2017-01-25T04:12:52.437Z,0
2017-01-25T04:13:52.423Z,0
2017-01-25T04:14:52.397Z,0
2017-01-25T04:15:52.370Z,0
2017-01-25T04:16:52.347Z,0
2017-01-25T04:17:52.339Z,0
2017-01-25T04:18:52.309Z,0
2017-01-25T04:19:52.291Z,0
2017-01-25T04:20:52.278Z,0
2017-01-25T04:21:52.258Z,0
2017-01-25T04:22:52.250Z,0
2017-01-25T04:23:52.594Z,0
2017-01-25T04:24:52.196Z,0
2017-01-25T04:25:52.161Z,0
2017-01-25T04:26:52.147Z,0
2017-01-25T04:27:52.139Z,0
2017-01-25T04:28:52.111Z,0
2017-01-25T04:29:52.098Z,0
2017-01-25T04:30:52.069Z,0
2017-01-25T04:31:52.048Z,0
2017-01-25T04:32:52.021Z,0
2017-01-25T04:33:52.001Z,0
2017-01-25T04:34:51.983Z,0
2017-01-25T04:35:51.965Z,0
2017-01-25T04:36:51.932Z,0
2017-01-25T04:37:51.925Z,0
2017-01-25T04:38:51.901Z,0
2017-01-25T04:39:51.880Z,0
2017-01-25T04:40:51.877Z,0
2017-01-25T04:41:51.850Z,0
2017-01-25T04:42:51.834Z,0
2017-01-25T04:43:51.797Z,0
2017-01-25T04:44:51.773Z,0
2017-01-25T04:45:51.759Z,0
2017-01-25T04:46:51.732Z,0
2017-01-25T04:47:51.714Z,0
2017-01-25T04:48:51.699Z,0
2017-01-25T04:49:51.662Z,0
2017-01-25T04:50:51.667Z,0
2017-01-25T04:51:51.635Z,0
2017-01-25T04:52:51.613Z,0
2017-01-25T04:53:51.579Z,0
2017-01-25T04:54:51.565Z,0
2017-01-25T04:55:51.536Z,0
2017-01-25T04:56:51.526Z,0
2017-01-25T04:57:51.500Z,0
2017-01-25T04:58:51.493Z,0
2017-01-25T04:59:51.457Z,0
2017-01-25T05:00:51.446Z,0
2017-01-25T05:01:51.425Z,0
2017-01-25T05:02:51.415Z,0
2017-01-25T05:03:51.391Z,0
2017-01-25T05:04:51.363Z,0
2017-01-25T05:05:51.339Z,0
2017-01-25T05:06:51.334Z,0
2017-01-25T05:07:51.307Z,0
2017-01-25T05:08:51.279Z,0
2017-01-25T05:09:51.258Z,0
2017-01-25T05:10:51.229Z,0
2017-01-25T05:11:51.212Z,0
2017-01-25T05:12:51.220Z,0
2017-01-25T05:13:51.174Z,0
2017-01-25T05:14:51.166Z,0
2017-01-25T05:15:51.131Z,0
2017-01-25T05:16:51.108Z,0
2017-01-25T05:17:51.096Z,0
2017-01-25T05:18:51.076Z,0
2017-01-25T05:19:51.065Z,0
2017-01-25T05:20:51.035Z,0
2017-01-25T05:21:51.011Z,0
2017-01-25T05:22:50.998Z,0
2017-01-25T05:23:50.967Z,0
2017-01-25T05:24:50.951Z,0
2017-01-25T05:25:50.934Z,0
2017-01-25T05:26:50.905Z,0
2017-01-25T05:27:50.887Z,0
2017-01-25T05:28:50.886Z,0
2017-01-25T05:29:50.835Z,0
2017-01-25T05:30:50.838Z,0
2017-01-25T05:31:50.805Z,0
2017-01-25T05:32:50.778Z,0
2017-01-25T05:33:50.761Z,0
2017-01-25T05:34:50.742Z,0
2017-01-25T05:35:50.724Z,0
2017-01-25T05:36:50.708Z,0
2017-01-25T05:37:50.678Z,0
2017-01-25T05:38:50.681Z,0
2017-01-25T05:39:50.640Z,0
2017-01-25T05:40:50.630Z,0
2017-01-25T05:41:50.593Z,0
2017-01-25T05:42:50.586Z,0
2017-01-25T05:43:50.547Z,0
2017-01-25T05:44:50.517Z,0
2017-01-25T05:45:50.521Z,0
2017-01-25T05:46:50.492Z,0
2017-01-25T05:47:50.479Z,0
2017-01-25T05:48:50.467Z,0
2017-01-25T05:49:50.426Z,0
2017-01-25T05:50:50.397Z,0
2017-01-25T05:51:50.399Z,0
2017-01-25T05:52:50.356Z,0
2017-01-25T05:53:50.342Z,0
2017-01-25T05:54:50.331Z,0
2017-01-25T05:55:50.305Z,0
2017-01-25T05:56:50.282Z,0
2017-01-25T05:57:50.252Z,0
2017-01-25T05:58:50.243Z,0
2017-01-25T05:59:50.222Z,0
2017-01-25T06:00:50.210Z,0
2017-01-25T06:01:50.197Z,0
2017-01-25T06:02:50.154Z,0
2017-01-25T06:03:50.125Z,0
2017-01-25T06:04:50.104Z,0
2017-01-25T06:05:50.091Z,0
2017-01-25T06:06:50.070Z,0
2017-01-25T06:07:50.037Z,0
2017-01-25T06:08:50.018Z,0
2017-01-25T06:09:50.013Z,0
2017-01-25T06:10:49.989Z,0
2017-01-25T06:11:49.966Z,0
2017-01-25T06:12:49.951Z,0
2017-01-25T06:13:49.935Z,0
2017-01-25T06:14:49.905Z,0
2017-01-25T06:15:49.871Z,0
2017-01-25T06:16:49.876Z,0
2017-01-25T06:17:49.850Z,0
2017-01-25T06:18:49.813Z,0
2017-01-25T06:19:49.790Z,0
2017-01-25T06:20:49.796Z,0
2017-01-25T06:21:49.760Z,0
2017-01-25T06:22:49.725Z,0
2017-01-25T06:23:49.736Z,0
2017-01-25T06:24:49.698Z,0
2017-01-25T06:25:49.666Z,0
2017-01-25T06:26:49.655Z,0
2017-01-25T06:27:49.646Z,0
2017-01-25T06:28:49.609Z,0
2017-01-25T06:29:49.593Z,0
2017-01-25T06:30:49.575Z,0
2017-01-25T06:31:49.543Z,0
2017-01-25T06:32:49.533Z,0
2017-01-25T06:33:49.509Z,5
2017-01-25T06:34:49.487Z,5
2017-01-25T06:35:49.463Z,5
2017-01-25T06:36:49.445Z,5
2017-01-25T06:37:49.415Z,5
2017-01-25T06:38:49.403Z,10
2017-01-25T06:39:49.384Z,10
2017-01-25T06:40:49.364Z,10
2017-01-25T06:41:49.334Z,10
2017-01-25T06:42:49.330Z,15
2017-01-25T06:43:49.283Z,15
2017-01-25T06:44:49.283Z,20
2017-01-25T06:45:49.257Z,20
2017-01-25T06:46:49.227Z,25
2017-01-25T06:47:49.604Z,25
2017-01-25T06:48:49.198Z,30
2017-01-25T06:49:49.170Z,30
2017-01-25T06:50:49.149Z,35
2017-01-25T06:51:49.133Z,40
2017-01-25T06:52:49.101Z,55
2017-01-25T06:53:49.087Z,65
2017-01-25T06:54:49.074Z,70
2017-01-25T06:55:49.049Z,75
2017-01-25T06:56:49.019Z,90
2017-01-25T06:57:49.010Z,95
2017-01-25T06:58:48.988Z,100
2017-01-25T06:59:48.953Z,110
2017-01-25T07:00:48.940Z,120
2017-01-25T07:01:49.302Z,130
2017-01-25T07:02:48.903Z,135
2017-01-25T07:03:48.872Z,140
2017-01-25T07:04:48.847Z,150
2017-01-25T07:05:48.861Z,155
2017-01-25T07:06:48.830Z,165
2017-01-25T07:07:48.800Z,175
2017-01-25T07:08:48.780Z,185
2017-01-25T07:09:48.770Z,195
2017-01-25T07:10:48.740Z,195
2017-01-25T07:11:48.713Z,195
2017-01-25T07:12:48.699Z,210
2017-01-25T07:13:48.884Z,215
2017-01-25T07:14:48.649Z,220
2017-01-25T07:15:48.637Z,230
2017-01-25T07:16:48.623Z,240
2017-01-25T07:17:48.590Z,250
2017-01-25T07:18:48.585Z,260
2017-01-25T07:19:48.544Z,260
2017-01-25T07:20:48.539Z,275
2017-01-25T07:21:48.508Z,280
2017-01-25T07:22:48.501Z,285
2017-01-25T07:23:48.487Z,295
2017-01-25T07:24:48.471Z,305
2017-01-25T07:25:48.448Z,315
2017-01-25T07:26:48.425Z,325
2017-01-25T07:27:48.394Z,340
2017-01-25T07:28:48.377Z,355
2017-01-25T07:29:48.369Z,375
2017-01-25T07:30:48.358Z,390
2017-01-25T07:31:48.315Z,395
2017-01-25T07:32:48.312Z,400
2017-01-25T07:33:48.277Z,420
2017-01-25T07:34:48.269Z,425
2017-01-25T07:35:48.252Z,430
2017-01-25T07:36:48.212Z,440
2017-01-25T07:37:48.211Z,460
2017-01-25T07:38:48.188Z,465
2017-01-25T07:39:48.169Z,465
2017-01-25T07:40:48.141Z,470
2017-01-25T07:41:48.150Z,500
2017-01-25T07:42:48.108Z,525
2017-01-25T07:43:48.301Z,535
2017-01-25T07:44:48.063Z,530
2017-01-25T07:45:48.047Z,525
2017-01-25T07:46:48.014Z,540
2017-01-25T07:47:48.030Z,585
2017-01-25T07:48:47.988Z,610
2017-01-25T07:49:47.973Z,600
2017-01-25T07:50:47.959Z,610
2017-01-25T07:51:47.934Z,605
2017-01-25T07:52:47.904Z,590
2017-01-25T07:53:48.907Z,570
2017-01-25T07:54:47.879Z,555
2017-01-25T07:55:47.867Z,580
2017-01-25T07:56:47.845Z,605
2017-01-25T07:57:47.810Z,620
2017-01-25T07:58:47.818Z,655
2017-01-25T07:59:47.772Z,705
2017-01-25T08:00:47.786Z,740
2017-01-25T08:01:47.739Z,725
2017-01-25T08:02:47.728Z,745
2017-01-25T08:03:47.730Z,760
2017-01-25T08:04:47.701Z,800
2017-01-25T08:05:47.665Z,825
2017-01-25T08:06:47.652Z,830
2017-01-25T08:07:47.640Z,850
2017-01-25T08:08:47.619Z,860
2017-01-25T08:09:47.595Z,860
2017-01-25T08:10:47.802Z,880
2017-01-25T08:11:47.566Z,890
2017-01-25T08:12:47.741Z,920
2017-01-25T08:13:47.527Z,970
2017-01-25T08:14:47.511Z,945
2017-01-25T08:15:47.495Z,900
2017-01-25T08:16:47.481Z,910
2017-01-25T08:17:47.448Z,960
2017-01-25T08:18:47.437Z,1010
2017-01-25T08:19:47.413Z,1020
2017-01-25T08:20:47.413Z,1025
2017-01-25T08:21:47.403Z,1045
2017-01-25T08:22:47.373Z,1135
2017-01-25T08:23:47.349Z,1145
2017-01-25T08:24:47.316Z,1120
2017-01-25T08:25:47.306Z,1120
2017-01-25T08:26:47.292Z,1080
2017-01-25T08:27:47.280Z,1100
2017-01-25T08:28:47.250Z,1125
2017-01-25T08:29:47.234Z,1125
2017-01-25T08:30:47.205Z,1145
2017-01-25T08:31:47.208Z,1185
2017-01-25T08:32:47.188Z,1100
2017-01-25T08:33:47.532Z,1150
2017-01-25T08:34:47.142Z,1200
2017-01-25T08:35:47.134Z,1175
2017-01-25T08:36:47.106Z,1145
2017-01-25T08:37:47.079Z,1110
2017-01-25T08:38:47.084Z,1155
2017-01-25T08:39:47.043Z,1240
2017-01-25T08:40:47.031Z,1305
2017-01-25T08:41:47.010Z,1415
2017-01-25T08:42:47.002Z,1440
2017-01-25T08:43:46.978Z,1340
2017-01-25T08:44:46.973Z,1400
2017-01-25T08:45:46.936Z,1445
2017-01-25T08:46:46.930Z,1560
2017-01-25T08:47:46.898Z,1525
2017-01-25T08:48:46.894Z,1310
2017-01-25T08:49:46.889Z,1120
2017-01-25T08:50:46.857Z,1160
2017-01-25T08:51:46.862Z,1180
2017-01-25T08:52:46.814Z,1170
2017-01-25T08:53:46.818Z,1170
2017-01-25T08:54:46.786Z,1155
2017-01-25T08:55:46.784Z,1125
2017-01-25T08:56:46.752Z,1090
2017-01-25T08:57:47.142Z,1040
2017-01-25T08:58:46.725Z,980
2017-01-25T08:59:46.709Z,950
2017-01-25T09:00:46.707Z,925
2017-01-25T09:01:46.678Z,970
2017-01-25T09:02:46.640Z,1305
2017-01-25T09:03:46.627Z,1390
2017-01-25T09:04:46.619Z,1530
2017-01-25T09:05:46.590Z,1685
2017-01-25T09:06:46.579Z,1610
2017-01-25T09:07:46.554Z,1635
2017-01-25T09:08:46.554Z,1530
2017-01-25T09:09:46.540Z,1385
2017-01-25T09:10:46.524Z,1410
2017-01-25T09:11:46.494Z,1590
2017-01-25T09:12:46.483Z,1690
2017-01-25T09:13:46.461Z,1710
2017-01-25T09:14:46.449Z,1635
2017-01-25T09:15:46.809Z,1590
2017-01-25T09:16:46.444Z,1605
2017-01-25T09:17:46.395Z,1855
2017-01-25T09:18:46.370Z,1915
2017-01-25T09:19:46.357Z,1990
2017-01-25T09:20:46.456Z,1890
2017-01-25T09:21:46.332Z,1605
2017-01-25T09:22:46.302Z,1345
2017-01-25T09:23:46.285Z,1210
2017-01-25T09:24:46.287Z,1200
2017-01-25T09:25:46.263Z,1235
2017-01-25T09:26:46.243Z,1385
2017-01-25T09:27:46.227Z,1645
2017-01-25T09:28:46.199Z,1655
2017-01-25T09:29:46.188Z,1545
2017-01-25T09:30:46.175Z,1445
2017-01-25T09:31:46.160Z,1400
2017-01-25T09:32:46.136Z,1545
2017-01-25T09:33:46.127Z,1800
2017-01-25T09:34:46.108Z,2015
2017-01-25T09:35:46.078Z,2030
2017-01-25T09:36:46.080Z,2000
2017-01-25T09:37:46.049Z,1880
2017-01-25T09:38:46.032Z,2000
2017-01-25T09:39:46.403Z,2030
2017-01-25T09:40:46.002Z,1970
2017-01-25T09:41:45.989Z,2045
2017-01-25T09:42:45.983Z,1910
2017-01-25T09:43:45.953Z,1805
2017-01-25T09:44:45.918Z,1815
2017-01-25T09:45:45.915Z,1745
2017-01-25T09:46:45.893Z,1780
2017-01-25T09:47:45.870Z,1875
2017-01-25T09:48:45.875Z,1750
2017-01-25T09:49:45.841Z,1855
2017-01-25T09:50:45.830Z,1930
2017-01-25T09:51:45.811Z,1850
2017-01-25T09:52:45.784Z,1945
2017-01-25T09:53:45.782Z,1840
2017-01-25T09:54:45.758Z,1705
2017-01-25T09:55:45.742Z,1810
2017-01-25T09:56:45.717Z,1965
2017-01-25T09:57:45.722Z,1935
2017-01-25T09:58:45.698Z,1685
2017-01-25T09:59:45.682Z,1835
2017-01-25T10:00:45.652Z,1970
2017-01-25T10:01:45.641Z,2160
2017-01-25T10:02:45.615Z,1995
2017-01-25T10:03:45.615Z,1745
2017-01-25T10:04:45.576Z,1860
2017-01-25T10:05:45.574Z,1915
2017-01-25T10:06:45.552Z,1885
2017-01-25T10:07:45.536Z,1805
2017-01-25T10:08:45.509Z,1845
2017-01-25T10:09:45.491Z,1925
2017-01-25T10:10:45.472Z,2025
2017-01-25T10:11:45.452Z,2070
2017-01-25T10:12:45.451Z,1985
2017-01-25T10:13:45.432Z,2065
2017-01-25T10:14:45.396Z,2040
2017-01-25T10:15:45.381Z,2175
2017-01-25T10:16:45.376Z,2085
2017-01-25T10:17:45.386Z,1920
2017-01-25T10:18:45.325Z,1805
2017-01-25T10:19:45.333Z,1840
2017-01-25T10:20:45.305Z,1965
2017-01-25T10:21:45.282Z,2065
2017-01-25T10:22:45.264Z,2115
2017-01-25T10:23:45.258Z,2195
2017-01-25T10:24:45.232Z,2135
2017-01-25T10:25:45.212Z,2110
2017-01-25T10:26:45.231Z,2195
2017-01-25T10:27:45.181Z,2205
2017-01-25T10:28:45.176Z,2070
2017-01-25T10:29:45.151Z,1945
2017-01-25T10:30:45.137Z,1880
2017-01-25T10:31:45.106Z,1760
2017-01-25T10:32:45.107Z,1835
2017-01-25T10:33:45.074Z,1885
2017-01-25T10:34:45.058Z,1760
2017-01-25T10:35:45.045Z,1715
2017-01-25T10:36:45.023Z,1865
2017-01-25T10:37:45.033Z,2270
2017-01-25T10:38:45.002Z,2130
2017-01-25T10:39:44.986Z,2065
2017-01-25T10:40:44.965Z,2110
2017-01-25T10:41:44.954Z,2110
2017-01-25T10:42:44.968Z,2050
2017-01-25T10:43:44.922Z,1980
2017-01-25T10:44:44.909Z,2045
2017-01-25T10:45:44.886Z,2165
2017-01-25T10:46:44.877Z,2115
2017-01-25T10:47:44.851Z,2140
2017-01-25T10:48:44.837Z,2225
2017-01-25T10:49:44.813Z,1955
2017-01-25T10:50:44.799Z,1830
2017-01-25T10:51:44.790Z,2020
2017-01-25T10:52:44.774Z,2155
2017-01-25T10:53:44.754Z,2165
2017-01-25T10:54:44.744Z,2325
2017-01-25T10:55:44.729Z,2300
2017-01-25T10:56:44.708Z,2180
2017-01-25T10:57:44.690Z,2340
2017-01-25T10:58:44.676Z,2240
2017-01-25T10:59:44.656Z,2060
2017-01-25T11:00:44.639Z,2085
2017-01-25T11:01:44.639Z,1985
2017-01-25T11:02:44.622Z,1815
2017-01-25T11:03:44.589Z,1865
2017-01-25T11:04:44.579Z,2045
2017-01-25T11:05:44.581Z,2110
2017-01-25T11:06:44.557Z,2160
2017-01-25T11:07:44.553Z,2230
2017-01-25T11:08:44.515Z,2195
2017-01-25T11:09:44.504Z,2040
2017-01-25T11:10:44.884Z,2025
2017-01-25T11:11:44.485Z,2000
2017-01-25T11:12:44.468Z,1995
2017-01-25T11:13:44.452Z,2030
2017-01-25T11:14:44.422Z,2075
2017-01-25T11:15:44.425Z,2265
2017-01-25T11:16:44.410Z,2230
2017-01-25T11:17:44.385Z,2105
2017-01-25T11:18:44.379Z,2120
2017-01-25T11:19:44.366Z,2170
2017-01-25T11:20:44.358Z,2210
2017-01-25T11:21:44.333Z,2045
2017-01-25T11:22:44.320Z,1960
2017-01-25T11:23:44.296Z,2260
2017-01-25T11:24:44.295Z,2390
2017-01-25T11:25:44.268Z,2390
2017-01-25T11:26:44.257Z,2370
2017-01-25T11:27:44.256Z,2520
2017-01-25T11:28:44.244Z,2415
2017-01-25T11:29:44.209Z,2210
2017-01-25T11:30:44.181Z,2255
2017-01-25T11:31:44.169Z,2270
2017-01-25T11:32:44.161Z,2185
2017-01-25T11:33:44.147Z,2180
2017-01-25T11:34:44.133Z,2105
2017-01-25T11:35:44.129Z,2150
2017-01-25T11:36:44.108Z,2075
2017-01-25T11:37:44.082Z,1920
2017-01-25T11:38:44.456Z,1925
2017-01-25T11:39:44.051Z,2175
2017-01-25T11:40:44.040Z,2130
2017-01-25T11:41:44.018Z,2115
2017-01-25T11:42:44.010Z,2370
2017-01-25T11:43:43.986Z,2350
2017-01-25T11:44:43.973Z,2210
2017-01-25T11:45:43.955Z,2185
2017-01-25T11:46:43.949Z,2115
2017-01-25T11:47:43.935Z,2035
2017-01-25T11:48:43.892Z,2060
2017-01-25T11:49:43.889Z,2210
2017-01-25T11:50:43.868Z,2300
2017-01-25T11:51:43.859Z,2095
2017-01-25T11:52:43.841Z,2015
2017-01-25T11:53:43.825Z,2250
2017-01-25T11:54:43.806Z,2315
2017-01-25T11:55:43.780Z,2455
2017-01-25T11:56:43.793Z,2470
2017-01-25T11:57:43.751Z,2280
2017-01-25T11:58:43.728Z,2335
2017-01-25T11:59:43.747Z,2225
2017-01-25T12:00:43.699Z,1955
2017-01-25T12:01:43.673Z,2145
2017-01-25T12:02:43.687Z,2420
2017-01-25T12:03:43.643Z,2260
2017-01-25T12:04:43.630Z,2145
2017-01-25T12:05:43.626Z,2160
2017-01-25T12:06:43.593Z,2115
2017-01-25T12:07:43.591Z,2140
2017-01-25T12:08:43.574Z,2155
2017-01-25T12:09:44.468Z,2090
2017-01-25T12:10:43.527Z,1995
2017-01-25T12:11:43.522Z,1805
2017-01-25T12:12:43.884Z,1870
2017-01-25T12:13:43.475Z,1970
2017-01-25T12:14:43.469Z,2055
2017-01-25T12:15:43.523Z,1980
2017-01-25T12:16:43.445Z,1845
2017-01-25T12:17:43.423Z,1910
2017-01-25T12:18:43.416Z,2010
2017-01-25T12:19:43.384Z,1980
2017-01-25T12:20:43.369Z,2165
2017-01-25T12:21:43.358Z,2355
2017-01-25T12:22:43.337Z,2100
2017-01-25T12:23:43.334Z,1715
2017-01-25T12:24:43.314Z,1845
2017-01-25T12:25:43.683Z,2055
2017-01-25T12:26:43.289Z,2105
2017-01-25T12:27:43.276Z,1935
2017-01-25T12:28:43.246Z,1750
2017-01-25T12:29:43.234Z,1875
2017-01-25T12:30:43.214Z,2010
2017-01-25T12:31:43.196Z,2170
2017-01-25T12:32:43.200Z,2135
2017-01-25T12:33:43.159Z,1975
2017-01-25T12:34:43.143Z,1960
2017-01-25T12:35:43.133Z,2050
2017-01-25T12:36:43.107Z,2285
2017-01-25T12:37:43.101Z,2235
2017-01-25T12:38:43.097Z,2235
2017-01-25T12:39:43.059Z,2095
2017-01-25T12:40:43.049Z,1890
2017-01-25T12:41:43.025Z,1995
2017-01-25T12:42:43.023Z,1910
2017-01-25T12:43:43.012Z,1755
2017-01-25T12:44:42.994Z,1875
2017-01-25T12:45:42.951Z,2035
2017-01-25T12:46:42.954Z,1945
2017-01-25T12:47:42.934Z,1980
2017-01-25T12:48:42.926Z,1925
2017-01-25T12:49:42.911Z,2060
2017-01-25T12:50:42.879Z,2140
2017-01-25T12:51:42.879Z,1900
2017-01-25T12:52:42.886Z,2120
2017-01-25T12:53:42.847Z,2070
2017-01-25T12:54:42.822Z,1800
2017-01-25T12:55:42.798Z,1710
2017-01-25T12:56:42.794Z,1715
2017-01-25T12:57:42.767Z,1875
2017-01-25T12:58:42.764Z,1905
2017-01-25T12:59:42.742Z,1735
2017-01-25T13:00:42.719Z,1890
2017-01-25T13:01:42.706Z,1805
2017-01-25T13:02:42.685Z,1730
2017-01-25T13:03:42.671Z,1895
2017-01-25T13:04:42.647Z,1910
2017-01-25T13:05:42.648Z,1800
2017-01-25T13:06:42.633Z,1910
2017-01-25T13:07:42.634Z,2080
2017-01-25T13:08:42.602Z,2070
2017-01-25T13:09:42.589Z,1900
2017-01-25T13:10:42.594Z,1795
2017-01-25T13:11:42.550Z,1820
2017-01-25T13:12:42.519Z,2010
2017-01-25T13:13:42.494Z,2070
2017-01-25T13:14:42.501Z,1975
2017-01-25T13:15:42.486Z,1840
2017-01-25T13:16:42.465Z,1855
2017-01-25T13:17:42.443Z,1940
2017-01-25T13:18:42.424Z,1900
2017-01-25T13:19:42.424Z,1850
2017-01-25T13:20:42.396Z,1865
2017-01-25T13:21:42.374Z,1820
2017-01-25T13:22:42.359Z,1765
2017-01-25T13:23:42.356Z,1825
2017-01-25T13:24:42.322Z,1705
2017-01-25T13:25:42.337Z,1640
2017-01-25T13:26:42.312Z,1735
2017-01-25T13:27:42.291Z,1715
2017-01-25T13:28:42.262Z,1590
2017-01-25T13:29:42.251Z,1490
2017-01-25T13:30:42.237Z,1455
2017-01-25T13:31:42.219Z,1435
2017-01-25T13:32:42.210Z,1445
2017-01-25T13:33:42.184Z,1505
2017-01-25T13:34:42.195Z,1490
2017-01-25T13:35:42.165Z,1455
2017-01-25T13:36:42.142Z,1390
2017-01-25T13:37:42.118Z,1470
2017-01-25T13:38:42.117Z,1590
2017-01-25T13:39:42.097Z,1590
2017-01-25T13:40:42.085Z,1485
2017-01-25T13:41:42.056Z,1630
2017-01-25T13:42:42.051Z,1615
2017-01-25T13:43:42.027Z,1475
2017-01-25T13:44:42.012Z,1560
2017-01-25T13:45:42.000Z,1635
2017-01-25T13:46:41.988Z,1440
2017-01-25T13:47:41.958Z,1380
2017-01-25T13:48:41.954Z,1335
2017-01-25T13:49:41.939Z,1180
2017-01-25T13:50:41.924Z,1335
2017-01-25T13:51:41.913Z,1490
2017-01-25T13:52:41.884Z,1370
2017-01-25T13:53:41.867Z,1370
2017-01-25T13:54:41.847Z,1485
2017-01-25T13:55:41.837Z,1415
2017-01-25T13:56:41.822Z,1205
2017-01-25T13:57:41.809Z,1275
2017-01-25T13:58:41.788Z,1335
2017-01-25T13:59:41.776Z,1235
2017-01-25T14:00:41.782Z,1240
2017-01-25T14:01:41.737Z,1315
2017-01-25T14:02:41.730Z,1390